• Join FlightAware (Why Join?)
  • Login
  • US Flag 
12:00AM EDT


 

Airport Tracker/Info


-or-


 

Live Flight TrackerFlight Track Log ✈ N966QS ✈ 01-May-2013 ✈ KMDW - KIAD

Flight Track Log - Related Links

Times and Time Zones

All times are in EDT time to prevent confusion due to time zone crossing. See the N966QS flight status page for this flight to view local times or setup timezone preferences in your user account.

Time Position Orientation Groundspeed Altitude Reporting Facility
EDT Latitude Longitude Course Direction KTS MPH feet Rate Location/Type
09:37PM 41.7833 -87.8167 90° East 214 246 3,000  Level Chicago TRACON
09:38PM 41.8167 -87.7833 37° Northeast 236 272 3,000 1,860 Level Chicago TRACON
09:41PM 41.8075 -87.5481 93° East 266 306 9,800 2,520 Climbing Chicago Center
09:42PM 41.7967 -87.4383 98° East 291 335 11,900 1,800 Climbing Chicago Center
09:43PM 41.7500 -86.8295 90° East  Level FlightAware Approximate
09:43PM 41.7842 -87.3086 97° East 345 397 13,600  Level Chicago Center
09:44PM 41.7717 -87.1747 97° East 360 414 15,400 1,800 Climbing Chicago Center
09:45PM 41.7597 -87.0358 97° East 373 429 17,400 1,800 Climbing Chicago Center
09:46PM 41.7631 -86.8931 88° East 383 441 19,100 2,040 Climbing Chicago Center
09:47PM 41.7647 -86.7158 89° East 397 457 21,600 2,160 Climbing Chicago Center
09:48PM 41.7661 -86.5797 89° East 406 467 23,600 1,980 Climbing Chicago Center
09:49PM 41.7672 -86.4247 89° East 415 478 25,700 1,860 Climbing Chicago Center
09:50PM 41.7653 -86.2658 91° East 426 490 27,500 1,800 Climbing Chicago Center
09:51PM 41.7525 -86.0697 95° East 441 507 29,400 1,740 Climbing Chicago Center
09:52PM 41.7414 -85.8986 95° East 457 526 31,100 2,100 Climbing Chicago Center
09:53PM 41.7311 -85.7253 94° East 465 535 33,800 2,220 Climbing Chicago Center
09:54PM 41.7208 -85.5539 95° East 460 529 35,700 1,620 Climbing Chicago Center
09:55PM 41.7081 -85.3975 96° East 459 528 37,200 1,560 Climbing Chicago Center
09:56PM 41.6967 -85.1903 94° East 507 583 39,000 900 Climbing Chicago Center
09:57PM 41.6856 -85.0436 96° East 490 564 39,000  Level Cleveland Center
09:58PM 41.6719 -84.8536 95° East 490 564 39,000  Level Cleveland Center
09:59PM 41.6622 -84.6583 94° East 504 580 39,000  Level Cleveland Center
10:00PM 41.6544 -84.4658 93° East 516 594 39,000  Level Cleveland Center
10:01PM 41.6272 -84.2781 101° East 521 600 39,000  Level Cleveland Center
10:02PM 41.5453 -84.1014 122° Southeast 501 577 39,000  Level Cleveland Center
10:03PM 41.4750 -83.9422 120° Southeast 501 577 39,000  Level Cleveland Center
10:04PM 41.4044 -83.7808 120° Southeast 507 583 39,000  Level Cleveland Center
10:05PM 41.3297 -83.6139 121° Southeast 512 589 39,000  Level Cleveland Center
10:06PM 41.2569 -83.4531 121° Southeast 512 589 39,000  Level Cleveland Center
10:07PM 41.1836 -83.2897 121° Southeast 512 589 39,000  Level Cleveland Center
10:08PM 41.1122 -83.1297 121° Southeast 512 589 39,000  Level Cleveland Center
10:11PM 40.9272 -82.7139 120° Southeast 522 601 39,000  Level Indianapolis Center
10:12PM 40.8508 -82.5489 121° Southeast 523 602 39,000  Level Indianapolis Center
10:13PM 40.7747 -82.3844 121° Southeast 524 603 39,000  Level Indianapolis Center
10:13PM 40.7358 -82.3067 123° Southeast 542 624 39,000  Level Cleveland Center
10:14PM 40.6589 -82.1406 121° Southeast 517 595 39,000  Level Cleveland Center
10:15PM 40.5839 -81.9775 121° Southeast 524 603 39,000  Level Cleveland Center
10:16PM 40.5147 -81.8311 122° Southeast 530 610 39,000  Level Cleveland Center
10:17PM 40.4350 -81.6661 122° Southeast 530 610 39,000  Level Cleveland Center
10:18PM 40.3553 -81.5014 122° Southeast 530 610 39,000  Level Cleveland Center
10:19PM 40.2775 -81.3206 119° Southeast 524 603 39,000  Level Cleveland Center
10:21PM 40.1511 -81.0658 123° Southeast 533 613 39,000  Level Indianapolis Center
10:21PM 40.1186 -80.9983 122° Southeast 524 603 39,000 -180 Level Cleveland Center
10:22PM 40.0397 -80.8325 122° Southeast 530 610 38,800 -900 Descending Cleveland Center
10:23PM 39.9628 -80.6725 122° Southeast 525 604 37,200 -1,500 Descending Cleveland Center
10:24PM 39.8858 -80.5181 123° Southeast 525 604 35,800 -1,380 Descending Cleveland Center
10:26PM 39.7631 -80.2744 123° Southeast 497 572 33,400 -1,380 Descending Indianapolis Center
10:27PM 39.7083 -80.1583 121° Southeast 499 574 32,400 -1,440 Descending Washington Center
10:28PM 39.6347 -80.0108 123° Southeast 499 574 31,000 -1,440 Descending Washington Center
10:29PM 39.5631 -79.8611 122° Southeast 499 574 29,600 -1,380 Descending Washington Center
10:30PM 39.5294 -79.6894 104° East 481 554 28,200 -1,380 Descending Washington Center
10:31PM 39.4975 -79.5183 104° East 486 559 27,000 -660 Descending Washington Center
10:32PM 39.4678 -79.3444 102° East 486 559 27,000 -900 Level Washington Center
10:33PM 39.4317 -79.1572 104° East 496 571 25,200 -1,980 Descending Washington Center
10:34PM 39.4067 -79.0136 103° East 463 533 23,000 -2,100 Descending Washington Center
10:35PM 39.3833 -78.8836 103° East 410 472 21,000 -2,040 Descending Washington Center
10:36PM 39.3597 -78.7536 103° East 380 437 19,000 -1,980 Descending Washington Center
10:37PM 39.3339 -78.6211 104° East 375 432 17,100 -1,980 Descending Washington Center
10:38PM 39.3100 -78.4939 104° East 375 432 15,100 -1,980 Descending Washington Center
10:39PM 39.2897 -78.3778 103° East 354 407 13,200 -1,380 Descending Washington Center
10:40PM 39.2797 -78.2622 96° East 331 381 12,400 -840 Descending Washington Center
10:41PM 39.2842 -78.1578 87° East 306 352 11,600 -720 Descending Washington Center
10:42PM 39.2864 -78.0586 88° East 287 330 11,000 -1,020 Descending Washington Center
10:43PM 39.2883 -77.9594 89° East 280 322 9,600 -1,920 Descending Washington Center
10:44PM 39.2881 -77.8656 90° East 270 311 7,200 -2,100 Descending Washington Center
10:45PM 39.2625 -77.7764 110° East 265 305 5,500 -1,140 Descending Washington Center
10:46PM 39.2433 -77.6900 106° East 259 298 5,000 -660 Descending Washington Center
10:47PM 39.2500 -77.6167 83° East 233 268 4,300 -420 Descending Potomac TRACON
10:48PM 39.2833 -77.5500 57° Northeast 208 239 4,200 -120 Descending Potomac TRACON
10:49PM 39.2833 -77.4833 90° East 219 252 4,100 -120 Descending Potomac TRACON
10:50PM 39.2333 -77.4333 142° Southeast 209 241 4,000 -360 Descending Potomac TRACON
10:51PM 39.1833 -77.4333 180° South 209 241 3,400 -480 Descending Potomac TRACON
10:51PM 39.1333 -77.4333 180° South 202 232 3,100 -420 Descending Potomac TRACON
10:53PM 39.0667 -77.4333 180° South 192 221 2,600 -600 Descending Potomac TRACON
10:53PM 39.0333 -77.4333 180° South 170 196 1,900 -780 Descending Potomac TRACON
10:54PM 39.0000 -77.4333 180° South 138 159 1,200 -720 Descending Potomac TRACON